createdAt,value
2023-05-17T00:01:07.692Z,23.20
2023-05-17T00:03:38.452Z,23.20
2023-05-17T00:06:07.913Z,23.10
2023-05-17T00:08:37.098Z,23.20
2023-05-17T00:11:06.284Z,23.20
2023-05-17T00:13:35.840Z,23.20
2023-05-17T00:16:05.142Z,23.10
2023-05-17T00:18:34.515Z,23.20
2023-05-17T00:21:05.293Z,23.20
2023-05-17T00:23:34.811Z,23.20
2023-05-17T00:26:04.068Z,23.20
2023-05-17T00:28:33.302Z,23.20
2023-05-17T00:31:02.453Z,23.20
2023-05-17T00:33:32.052Z,23.20
2023-05-17T00:36:01.360Z,23.20
2023-05-17T00:38:32.024Z,23.20
2023-05-17T00:41:01.258Z,23.20
2023-05-17T00:43:30.566Z,23.20
2023-05-17T00:45:59.804Z,23.20
2023-05-17T00:48:30.302Z,23.20
2023-05-17T00:51:00.765Z,23.20
2023-05-17T00:53:31.779Z,23.20
2023-05-17T00:56:02.009Z,23.20
2023-05-17T00:58:31.724Z,23.20
2023-05-17T01:01:01.635Z,23.20
2023-05-17T01:03:31.126Z,23.20
2023-05-17T01:06:00.629Z,23.20
2023-05-17T01:08:31.672Z,23.20
2023-05-17T01:11:13.494Z,23.20
2023-05-17T01:13:50.270Z,23.20
2023-05-17T01:16:26.627Z,23.20
2023-05-17T01:19:01.562Z,23.20
2023-05-17T01:21:41.317Z,23.20
2023-05-17T01:24:40.628Z,23.20
2023-05-17T01:27:12.745Z,23.20
2023-05-17T01:29:44.579Z,23.20
2023-05-17T01:32:16.537Z,23.20
2023-05-17T01:34:46.124Z,23.20
2023-05-17T01:37:15.533Z,23.20
2023-05-17T01:39:44.807Z,23.20
2023-05-17T01:42:22.384Z,23.20
2023-05-17T01:45:00.611Z,23.20
2023-05-17T01:47:35.348Z,23.20
2023-05-17T01:50:07.812Z,23.20
2023-05-17T01:52:47.154Z,23.20
2023-05-17T01:55:23.032Z,23.20
2023-05-17T01:57:56.964Z,23.20
2023-05-17T02:00:30.125Z,23.20
2023-05-17T02:03:00.069Z,23.20
2023-05-17T02:05:29.451Z,23.30
2023-05-17T02:07:58.849Z,23.20
2023-05-17T02:10:28.112Z,23.20
2023-05-17T02:13:00.223Z,23.20
2023-05-17T02:15:29.827Z,23.20
2023-05-17T02:17:59.428Z,23.20
2023-05-17T02:20:28.712Z,23.20
2023-05-17T02:22:57.942Z,23.20
2023-05-17T02:25:28.871Z,23.30
2023-05-17T02:27:59.828Z,23.30
2023-05-17T02:30:30.162Z,23.20
2023-05-17T02:32:59.492Z,23.20
2023-05-17T02:35:29.126Z,23.20
2023-05-17T02:37:58.458Z,23.20
2023-05-17T02:40:27.757Z,23.30
2023-05-17T02:42:57.058Z,23.20
2023-05-17T02:45:27.989Z,23.30
2023-05-17T02:47:57.432Z,23.30
2023-05-17T02:50:26.769Z,23.30
2023-05-17T02:52:56.403Z,23.30
2023-05-17T02:55:25.596Z,23.30
2023-05-17T02:57:55.025Z,23.30
2023-05-17T03:00:26.730Z,23.30
2023-05-17T03:02:56.185Z,23.30
2023-05-17T03:05:25.513Z,23.30
2023-05-17T03:07:54.830Z,23.30
2023-05-17T03:10:24.496Z,23.30
2023-05-17T03:12:54.023Z,23.30
2023-05-17T03:15:29.885Z,23.30
2023-05-17T03:17:59.634Z,23.20
2023-05-17T03:20:29.133Z,23.30
2023-05-17T03:22:58.929Z,23.30
2023-05-17T03:25:29.226Z,23.30
2023-05-17T03:27:58.899Z,23.30
2023-05-17T03:30:29.722Z,23.30
2023-05-17T03:32:59.516Z,23.30
2023-05-17T03:35:29.094Z,23.30
2023-05-17T03:37:59.523Z,23.30
2023-05-17T03:40:28.869Z,23.30
2023-05-17T03:42:59.249Z,23.20
2023-05-17T03:45:31.199Z,23.30
2023-05-17T03:48:00.533Z,23.30
2023-05-17T03:50:32.167Z,23.30
2023-05-17T03:53:01.617Z,23.30
2023-05-17T03:55:31.073Z,23.30
2023-05-17T03:58:00.271Z,23.30
2023-05-17T04:00:32.811Z,23.30
2023-05-17T04:03:07.334Z,23.30
2023-05-17T04:05:36.692Z,23.30
2023-05-17T04:08:07.150Z,23.30
2023-05-17T04:10:36.395Z,23.30
2023-05-17T04:13:06.784Z,23.30
2023-05-17T04:15:37.434Z,23.30
2023-05-17T04:18:07.968Z,23.30
2023-05-17T04:20:37.266Z,23.30
2023-05-17T04:23:06.667Z,23.30
2023-05-17T04:25:38.162Z,23.30
2023-05-17T04:28:07.418Z,23.30
2023-05-17T04:30:38.072Z,23.30
2023-05-17T04:33:07.799Z,23.30
2023-05-17T04:35:37.899Z,23.30
2023-05-17T04:38:07.918Z,23.20
2023-05-17T04:40:38.434Z,23.20
2023-05-17T04:43:08.105Z,23.20
2023-05-17T04:45:39.404Z,23.20
2023-05-17T04:48:08.719Z,23.20
2023-05-17T04:50:37.990Z,23.10
2023-05-17T04:53:07.245Z,23.10
2023-05-17T04:55:38.822Z,23.10
2023-05-17T04:58:08.293Z,23.10
2023-05-17T05:00:39.069Z,23.00
2023-05-17T05:03:10.238Z,23.00
2023-05-17T05:05:39.564Z,23.00
2023-05-17T05:08:11.931Z,23.00
2023-05-17T05:10:41.396Z,23.00
2023-05-17T05:13:11.829Z,22.90
2023-05-17T05:15:44.544Z,22.90
2023-05-17T05:18:13.835Z,22.90
2023-05-17T05:20:44.489Z,22.90
2023-05-17T05:23:13.871Z,22.90
2023-05-17T05:25:45.968Z,22.90
2023-05-17T05:28:15.354Z,22.80
2023-05-17T05:30:46.389Z,22.80
2023-05-17T05:33:17.173Z,22.80
2023-05-17T05:35:48.717Z,22.80
2023-05-17T05:38:17.989Z,22.80
2023-05-17T05:40:49.166Z,22.80
2023-05-17T05:43:18.713Z,22.70
2023-05-17T05:45:49.375Z,22.70
2023-05-17T05:48:18.841Z,22.60
2023-05-17T05:50:48.075Z,22.60
2023-05-17T05:53:19.361Z,22.50
2023-05-17T05:55:56.186Z,22.50
2023-05-17T05:58:25.623Z,22.50
2023-05-17T06:00:56.379Z,22.60
2023-05-17T06:03:25.985Z,22.60
2023-05-17T06:05:55.400Z,22.60
2023-05-17T06:08:24.663Z,22.60
2023-05-17T06:10:53.957Z,22.70
2023-05-17T06:13:23.340Z,22.70
2023-05-17T06:15:52.741Z,22.70
2023-05-17T06:18:23.605Z,22.70
2023-05-17T06:20:52.987Z,22.70
2023-05-17T06:23:22.321Z,22.70
2023-05-17T06:25:52.614Z,22.70
2023-05-17T06:28:21.955Z,22.70
2023-05-17T06:30:51.754Z,22.70
2023-05-17T06:33:23.049Z,22.70
2023-05-17T06:35:56.380Z,22.70
2023-05-17T06:38:27.637Z,22.70
2023-05-17T06:40:58.784Z,22.70
2023-05-17T06:43:28.637Z,22.70
2023-05-17T06:45:58.303Z,22.70
2023-05-17T06:48:29.910Z,22.70
2023-05-17T06:51:01.653Z,22.60
2023-05-17T06:53:31.319Z,22.60
2023-05-17T06:56:00.741Z,22.60
2023-05-17T06:58:30.100Z,22.70
2023-05-17T07:00:59.425Z,22.70
2023-05-17T07:03:30.722Z,22.70
2023-05-17T07:06:00.143Z,22.70
2023-05-17T07:08:31.802Z,22.80
2023-05-17T07:11:01.432Z,22.80
2023-05-17T07:13:30.773Z,22.80
2023-05-17T07:16:00.885Z,22.90
2023-05-17T07:18:31.665Z,22.90
2023-05-17T07:21:01.141Z,22.90
2023-05-17T07:23:30.609Z,22.90
2023-05-17T07:26:00.000Z,23.00
2023-05-17T07:28:29.887Z,23.00
2023-05-17T07:30:59.410Z,23.00
2023-05-17T07:33:28.800Z,23.00
2023-05-17T07:35:59.922Z,23.00
2023-05-17T07:38:29.159Z,23.00
2023-05-17T07:40:58.381Z,23.00
2023-05-17T07:43:28.075Z,23.00
2023-05-17T07:45:57.394Z,23.00
2023-05-17T07:48:27.003Z,23.00
2023-05-17T07:50:56.562Z,23.10
2023-05-17T07:53:27.419Z,23.10
2023-05-17T07:55:56.729Z,23.20
2023-05-17T07:58:26.296Z,23.20
2023-05-17T08:00:55.542Z,23.30
2023-05-17T08:03:25.376Z,23.20
2023-05-17T08:05:55.168Z,23.20
2023-05-17T08:08:24.525Z,23.20
2023-05-17T08:10:55.375Z,23.20
2023-05-17T08:13:24.768Z,23.10
2023-05-17T08:16:01.426Z,23.10
2023-05-17T08:18:38.817Z,23.10
2023-05-17T08:21:08.214Z,23.10
2023-05-17T08:23:37.565Z,23.10
2023-05-17T08:26:08.288Z,23.10
2023-05-17T08:28:37.538Z,23.10
2023-05-17T08:31:08.823Z,23.20
2023-05-17T08:33:38.235Z,23.20
2023-05-17T08:36:08.958Z,23.20
2023-05-17T08:38:38.444Z,23.20
2023-05-17T08:41:10.978Z,23.20
2023-05-17T08:43:40.617Z,23.20
2023-05-17T08:46:11.479Z,23.20
2023-05-17T08:48:43.551Z,23.20
2023-05-17T08:51:13.578Z,23.20
2023-05-17T08:53:47.210Z,23.20
2023-05-17T08:56:19.767Z,23.20
2023-05-17T08:58:57.111Z,23.20
2023-05-17T09:01:29.891Z,23.20
2023-05-17T09:04:01.622Z,23.20
2023-05-17T09:06:33.879Z,23.20
2023-05-17T09:09:03.752Z,23.20
2023-05-17T09:11:34.794Z,23.20
2023-05-17T09:14:06.194Z,23.20
2023-05-17T09:16:37.452Z,23.20
2023-05-17T09:19:10.337Z,23.20
2023-05-17T09:21:40.178Z,23.30
2023-05-17T09:24:10.023Z,23.30
2023-05-17T09:26:44.658Z,23.30
2023-05-17T09:29:15.538Z,23.30
2023-05-17T09:31:45.878Z,23.20
2023-05-17T09:34:19.503Z,23.20
2023-05-17T09:36:48.880Z,23.20
2023-05-17T09:39:18.294Z,23.20
2023-05-17T09:41:50.270Z,23.20
2023-05-17T09:44:19.482Z,23.20
2023-05-17T09:46:50.299Z,23.10
2023-05-17T09:49:19.804Z,23.10
2023-05-17T09:51:50.227Z,23.10
2023-05-17T09:54:19.844Z,23.10
2023-05-17T09:56:58.616Z,23.10
2023-05-17T09:59:29.339Z,23.10
2023-05-17T10:02:00.980Z,23.10
2023-05-17T10:04:34.560Z,23.10
2023-05-17T10:07:03.991Z,23.10
2023-05-17T10:09:37.146Z,23.10
2023-05-17T10:12:12.030Z,23.00
2023-05-17T10:14:42.244Z,23.00
2023-05-17T10:17:14.224Z,23.00
2023-05-17T10:19:44.829Z,23.00
2023-05-17T10:22:22.553Z,23.00
2023-05-17T10:24:53.865Z,22.90
2023-05-17T10:27:25.149Z,22.90
2023-05-17T10:29:55.935Z,22.90
2023-05-17T10:32:27.398Z,22.90
2023-05-17T10:35:09.070Z,22.90
2023-05-17T10:37:40.564Z,22.90
2023-05-17T10:40:13.682Z,22.90
2023-05-17T10:42:51.050Z,22.80
2023-05-17T10:45:23.794Z,22.80
2023-05-17T10:47:53.780Z,22.80
2023-05-17T10:50:27.464Z,22.80
2023-05-17T10:53:00.707Z,22.80
2023-05-17T10:55:40.021Z,22.80
2023-05-17T10:58:19.890Z,22.80
2023-05-17T11:00:52.056Z,22.80
2023-05-17T11:03:30.344Z,22.80
2023-05-17T11:06:25.313Z,22.80
2023-05-17T11:09:16.363Z,22.70
2023-05-17T11:12:10.832Z,22.70
2023-05-17T11:14:55.215Z,22.70
2023-05-17T11:17:26.643Z,22.70
2023-05-17T11:20:06.942Z,22.70
2023-05-17T11:22:38.754Z,22.70
2023-05-17T11:25:10.343Z,22.70
2023-05-17T11:27:44.964Z,22.70
2023-05-17T11:30:26.887Z,22.70
2023-05-17T11:33:02.098Z,22.80
2023-05-17T11:35:35.421Z,22.80
2023-05-17T11:38:19.129Z,22.80
2023-05-17T11:40:49.956Z,22.80
2023-05-17T11:43:21.806Z,22.80
2023-05-17T11:45:54.258Z,22.80
2023-05-17T11:48:24.970Z,22.90
2023-05-17T11:50:57.037Z,22.90
2023-05-17T11:53:27.424Z,22.90
2023-05-17T11:55:57.003Z,22.90
2023-05-17T11:58:27.574Z,22.90
2023-05-17T12:00:59.933Z,23.00
2023-05-17T12:03:30.362Z,23.00
2023-05-17T12:06:08.429Z,23.00
2023-05-17T12:08:39.368Z,23.00
2023-05-17T12:11:12.599Z,23.00
2023-05-17T12:13:43.255Z,23.00
2023-05-17T12:16:18.131Z,23.00
2023-05-17T12:18:50.966Z,23.10
2023-05-17T12:21:21.721Z,23.40
2023-05-17T12:23:53.779Z,23.10
2023-05-17T12:26:25.273Z,23.10
2023-05-17T12:28:59.044Z,23.10
2023-05-17T12:31:33.813Z,23.10
2023-05-17T12:34:03.968Z,23.10
2023-05-17T12:36:34.996Z,23.10
2023-05-17T12:39:08.761Z,23.00
2023-05-17T12:41:38.749Z,23.00
2023-05-17T12:46:43.887Z,23.00
2023-05-17T12:49:13.516Z,23.00
2023-05-17T12:51:44.423Z,23.00
2023-05-17T12:54:16.268Z,23.00
2023-05-17T12:56:47.162Z,22.90
2023-05-17T12:59:18.357Z,23.00
2023-05-17T13:01:50.469Z,22.90
2023-05-17T13:04:20.942Z,22.90
2023-05-17T13:06:51.888Z,22.90
2023-05-17T13:09:24.034Z,22.90
2023-05-17T13:11:54.408Z,22.80
2023-05-17T13:14:37.687Z,22.80
2023-05-17T13:17:10.195Z,22.90
2023-05-17T13:19:40.238Z,22.80
2023-05-17T13:22:10.817Z,22.80
2023-05-17T13:24:41.108Z,22.80
2023-05-17T13:27:11.193Z,22.80
2023-05-17T13:29:43.832Z,22.90
2023-05-17T13:32:16.030Z,22.90
2023-05-17T13:34:45.530Z,22.90
2023-05-17T13:37:14.856Z,22.90
2023-05-17T13:39:44.291Z,22.90
2023-05-17T13:42:14.621Z,22.90
2023-05-17T13:44:44.013Z,22.80
2023-05-17T13:47:14.843Z,22.80
2023-05-17T13:49:44.725Z,22.90
2023-05-17T13:52:14.325Z,22.80
2023-05-17T13:54:43.818Z,22.90
2023-05-17T13:57:14.475Z,22.90
2023-05-17T13:59:45.759Z,22.80
2023-05-17T14:02:16.914Z,22.80
2023-05-17T14:04:46.263Z,22.90
2023-05-17T14:07:15.455Z,22.90
2023-05-17T14:09:44.793Z,22.90
2023-05-17T14:12:14.069Z,22.90
2023-05-17T14:14:43.327Z,22.90
2023-05-17T14:17:12.709Z,22.90
2023-05-17T14:19:43.517Z,22.90
2023-05-17T14:22:13.983Z,22.90
2023-05-17T14:24:43.320Z,22.90
2023-05-17T14:27:12.956Z,22.90
2023-05-17T14:29:42.166Z,22.90
2023-05-17T14:32:13.106Z,22.90
2023-05-17T14:34:43.855Z,22.90
2023-05-17T14:37:14.445Z,22.90
2023-05-17T14:39:49.473Z,22.90
2023-05-17T14:42:31.591Z,22.90
2023-05-17T14:45:00.977Z,22.90
2023-05-17T14:47:30.174Z,22.80
2023-05-17T14:50:01.280Z,22.80
2023-05-17T14:52:30.719Z,22.80
2023-05-17T14:55:00.180Z,22.90
2023-05-17T14:57:29.729Z,22.90
2023-05-17T15:00:00.025Z,22.90
2023-05-17T15:02:29.458Z,22.90
2023-05-17T15:04:58.792Z,23.00
2023-05-17T15:07:29.624Z,23.00
2023-05-17T15:09:58.923Z,23.00
2023-05-17T15:12:28.235Z,23.00
2023-05-17T15:14:57.584Z,23.00
2023-05-17T15:17:27.200Z,23.00
2023-05-17T15:19:56.529Z,23.00
2023-05-17T15:22:25.996Z,23.00
2023-05-17T15:24:57.963Z,22.90
2023-05-17T15:27:27.328Z,22.90
2023-05-17T15:29:56.696Z,22.90
2023-05-17T15:32:26.033Z,22.90
2023-05-17T15:34:55.332Z,22.90
2023-05-17T15:37:24.651Z,22.90
2023-05-17T15:39:55.383Z,22.80
2023-05-17T15:42:24.660Z,22.80
2023-05-17T15:44:53.879Z,22.80
2023-05-17T15:47:31.591Z,22.80
2023-05-17T15:50:09.281Z,22.80
2023-05-17T15:52:38.548Z,22.80
2023-05-17T15:55:11.160Z,22.80
2023-05-17T15:57:40.794Z,22.80
2023-05-17T16:00:12.024Z,22.80
2023-05-17T16:02:41.565Z,22.80
2023-05-17T16:05:11.407Z,22.70
2023-05-17T16:07:40.693Z,22.70
2023-05-17T16:10:12.187Z,22.70
2023-05-17T16:12:41.524Z,22.70
2023-05-17T16:15:11.700Z,22.70
2023-05-17T16:17:41.050Z,22.70
2023-05-17T16:20:11.209Z,22.70
2023-05-17T16:22:45.241Z,22.70
2023-05-17T16:25:17.422Z,22.70
2023-05-17T16:27:46.813Z,22.70
2023-05-17T16:30:17.112Z,22.70
2023-05-17T16:32:47.117Z,22.60
2023-05-17T16:35:17.984Z,22.60
2023-05-17T16:37:48.195Z,22.60
2023-05-17T16:40:19.168Z,22.60
2023-05-17T16:42:48.641Z,22.60
2023-05-17T16:45:17.874Z,22.70
2023-05-17T16:47:47.069Z,22.70
2023-05-17T16:50:16.420Z,22.70
2023-05-17T16:52:45.766Z,22.70
2023-05-17T16:55:14.981Z,22.70
2023-05-17T16:57:45.802Z,22.70
2023-05-17T17:00:16.069Z,22.70
2023-05-17T17:02:45.726Z,22.70
2023-05-17T17:05:14.989Z,22.70
2023-05-17T17:07:46.191Z,22.70
2023-05-17T17:10:15.721Z,22.70
2023-05-17T17:12:46.900Z,22.70
2023-05-17T17:15:16.386Z,22.70
2023-05-17T17:17:45.985Z,22.70
2023-05-17T17:20:15.676Z,22.70
2023-05-17T17:22:45.229Z,22.70
2023-05-17T17:25:14.950Z,22.80
2023-05-17T17:27:46.012Z,22.70
2023-05-17T17:30:15.704Z,22.70
2023-05-17T17:32:45.432Z,22.70
2023-05-17T17:35:14.961Z,22.70
2023-05-17T17:37:44.167Z,22.70
2023-05-17T17:40:14.010Z,22.70
2023-05-17T17:42:43.328Z,22.70
2023-05-17T17:45:14.107Z,22.70
2023-05-17T17:47:43.417Z,22.60
2023-05-17T17:50:12.989Z,22.60
2023-05-17T17:52:42.224Z,22.60
2023-05-17T17:55:13.434Z,22.70
2023-05-17T17:57:43.021Z,22.70
2023-05-17T18:00:16.264Z,22.70
2023-05-17T18:02:45.756Z,22.80
2023-05-17T18:05:15.305Z,22.80
2023-05-17T18:07:44.496Z,22.80
2023-05-17T18:10:13.764Z,22.90
2023-05-17T18:12:43.017Z,22.90
2023-05-17T18:15:12.702Z,22.90
2023-05-17T18:17:43.624Z,22.90
2023-05-17T18:20:13.132Z,22.90
2023-05-17T18:22:42.374Z,23.00
2023-05-17T18:25:11.920Z,23.00
2023-05-17T18:27:41.657Z,23.00
2023-05-17T18:30:12.425Z,23.00
2023-05-17T18:32:43.261Z,23.00
2023-05-17T18:35:12.793Z,23.00
2023-05-17T18:37:41.987Z,23.00
2023-05-17T18:40:12.282Z,23.00
2023-05-17T18:42:41.602Z,23.10
2023-05-17T18:45:11.850Z,23.10
2023-05-17T18:47:42.630Z,23.10
2023-05-17T18:50:12.069Z,23.10
2023-05-17T18:52:41.420Z,23.10
2023-05-17T18:55:10.980Z,23.10
2023-05-17T18:57:42.472Z,23.10
2023-05-17T19:00:12.804Z,23.10
2023-05-17T19:02:43.713Z,23.10
2023-05-17T19:05:13.030Z,23.10
2023-05-17T19:07:42.530Z,23.10
2023-05-17T19:10:12.648Z,23.10
2023-05-17T19:12:44.722Z,23.10
2023-05-17T19:15:14.749Z,23.10
2023-05-17T19:17:45.718Z,23.10
2023-05-17T19:20:15.595Z,23.10
2023-05-17T19:22:45.539Z,23.10
2023-05-17T19:25:16.379Z,23.10
2023-05-17T19:27:47.973Z,23.20
2023-05-17T19:30:17.691Z,23.20
2023-05-17T19:32:48.559Z,23.20
2023-05-17T19:35:17.847Z,23.20
2023-05-17T19:37:47.101Z,23.20
2023-05-17T19:40:19.030Z,23.20
2023-05-17T19:42:48.616Z,23.20
2023-05-17T19:45:18.908Z,23.20
2023-05-17T19:47:49.889Z,23.20
2023-05-17T19:50:19.643Z,23.20
2023-05-17T19:52:49.863Z,23.20
2023-05-17T19:55:22.356Z,23.20
2023-05-17T19:57:52.713Z,23.20
2023-05-17T20:00:22.490Z,23.20
2023-05-17T20:02:55.418Z,23.20
2023-05-17T20:05:27.448Z,23.20
2023-05-17T20:07:56.765Z,23.20
2023-05-17T20:10:26.517Z,23.20
2023-05-17T20:12:56.298Z,23.20
2023-05-17T20:15:25.758Z,23.10
2023-05-17T20:17:56.461Z,23.10
2023-05-17T20:20:26.381Z,23.10
2023-05-17T20:22:55.743Z,23.10
2023-05-17T20:25:25.457Z,23.10
2023-05-17T20:27:54.716Z,23.10
2023-05-17T20:30:23.958Z,23.10
2023-05-17T20:32:53.599Z,23.10
2023-05-17T20:35:24.611Z,23.00
2023-05-17T20:37:53.795Z,23.00
2023-05-17T20:40:23.160Z,22.90
2023-05-17T20:42:53.174Z,22.90
2023-05-17T20:45:22.918Z,22.80
2023-05-17T20:47:52.991Z,22.80
2023-05-17T20:50:23.694Z,22.90
2023-05-17T20:52:53.024Z,22.90
2023-05-17T20:55:22.400Z,22.90
2023-05-17T20:57:51.671Z,22.90
2023-05-17T21:00:21.380Z,22.90
2023-05-17T21:02:50.967Z,23.00
2023-05-17T21:05:20.286Z,23.00
2023-05-17T21:07:50.944Z,22.90
2023-05-17T21:10:20.288Z,22.90
2023-05-17T21:12:49.502Z,22.90
2023-05-17T21:15:18.633Z,22.90
2023-05-17T21:17:48.218Z,22.90
2023-05-17T21:20:17.765Z,22.90
2023-05-17T21:22:47.064Z,22.90
2023-05-17T21:25:17.842Z,22.90
2023-05-17T21:27:47.584Z,22.90
2023-05-17T21:30:17.047Z,22.90
2023-05-17T21:32:46.534Z,22.90
2023-05-17T21:35:16.053Z,22.90
2023-05-17T21:37:45.314Z,22.90
2023-05-17T21:40:17.050Z,22.80
2023-05-17T21:42:46.796Z,22.80
2023-05-17T21:45:16.094Z,22.80
2023-05-17T21:47:45.368Z,22.80
2023-05-17T21:50:14.757Z,22.80
2023-05-17T21:52:44.122Z,22.70
2023-05-17T21:55:13.368Z,22.70
2023-05-17T21:57:43.922Z,22.70
2023-05-17T22:00:15.579Z,22.70
2023-05-17T22:02:46.081Z,22.70
2023-05-17T22:05:15.801Z,22.70
2023-05-17T22:07:44.999Z,22.70
2023-05-17T22:10:14.597Z,22.70
2023-05-17T22:12:45.237Z,22.70
2023-05-17T22:15:14.465Z,22.70
2023-05-17T22:17:51.497Z,22.70
2023-05-17T22:20:23.888Z,22.70
2023-05-17T22:22:53.336Z,22.70
2023-05-17T22:25:22.760Z,22.60
2023-05-17T22:27:53.385Z,22.60
2023-05-17T22:30:22.726Z,22.60
2023-05-17T22:32:54.816Z,22.60
2023-05-17T22:35:24.590Z,22.60
2023-05-17T22:37:53.834Z,22.60
2023-05-17T22:40:23.184Z,22.60
2023-05-17T22:42:54.500Z,22.60
2023-05-17T22:45:26.178Z,22.60
2023-05-17T22:47:57.415Z,22.60
2023-05-17T22:50:30.704Z,22.60
2023-05-17T22:53:00.256Z,22.50
2023-05-17T22:55:29.855Z,22.50
2023-05-17T22:58:00.622Z,22.50
2023-05-17T23:00:29.866Z,22.50
2023-05-17T23:02:59.146Z,22.50
2023-05-17T23:07:58.097Z,22.50
2023-05-17T23:10:27.300Z,22.50
2023-05-17T23:12:58.369Z,22.50
2023-05-17T23:15:29.829Z,22.50
2023-05-17T23:18:00.114Z,22.50
2023-05-17T23:20:29.452Z,22.50
2023-05-17T23:22:59.773Z,22.50
2023-05-17T23:25:29.597Z,22.50
2023-05-17T23:27:59.063Z,22.50
2023-05-17T23:30:29.833Z,22.50
2023-05-17T23:33:00.378Z,22.50
2023-05-17T23:35:29.783Z,22.50
2023-05-17T23:37:59.150Z,22.50
2023-05-17T23:40:28.369Z,22.40
2023-05-17T23:42:57.865Z,22.40
2023-05-17T23:45:30.112Z,22.40
2023-05-17T23:48:00.620Z,22.40
2023-05-17T23:50:30.058Z,22.40
2023-05-17T23:53:03.466Z,22.40
2023-05-17T23:55:32.777Z,22.40
2023-05-17T23:58:01.908Z,22.40
